Time;durP1;ratioP1;P1;durP2;ratioP2;P2;SDS_P1;SDS_P2;PMS_P1;PMS_P2;Temp;Humidity;BMP_temperature;BMP_pressure;BME280_temperature;BME280_humidity;BME280_pressure;Samples;Min_cycle;Max_cycle;Signal;HPM_P1;HPM_P2
2022/10/06 00:00:28;;;;;;;21.08;9.23;;;;;;;12.72;87.30;102047.63;4995684;28;20034;-59
2022/10/06 00:02:53;;;;;;;17.98;8.90;;;;;;;12.69;88.08;102050.97;4995968;28;20030;-59
2022/10/06 00:05:18;;;;;;;19.90;8.82;;;;;;;12.59;88.55;102052.72;4995512;28;20466;-59
2022/10/06 00:07:44;;;;;;;18.00;9.18;;;;;;;12.60;88.75;102061.88;4995549;28;20100;-59
2022/10/06 00:10:09;;;;;;;15.80;9.30;;;;;;;12.57;89.34;102079.13;4993858;28;20367;-58
2022/10/06 00:12:42;;;;;;;16.88;9.57;;;;;;;12.51;89.11;102074.72;4995171;28;20034;-59
2022/10/06 00:15:09;;;;;;;16.73;8.98;;;;;;;12.48;89.64;102088.06;4993381;28;20034;-59
2022/10/06 00:17:34;;;;;;;18.50;9.85;;;;;;;12.46;88.96;102078.38;4994405;28;20054;-60
2022/10/06 00:20:00;;;;;;;18.77;9.63;;;;;;;12.43;88.90;102092.81;4994431;28;20441;-59
2022/10/06 00:22:32;;;;;;;17.88;9.30;;;;;;;12.38;89.25;102090.06;4994483;28;20034;-59
2022/10/06 00:24:58;;;;;;;18.73;9.32;;;;;;;12.35;88.39;102102.56;4994441;28;20022;-59
2022/10/06 00:27:23;;;;;;;20.05;9.85;;;;;;;12.35;88.65;102104.53;4992821;28;20470;-59
2022/10/06 00:29:49;;;;;;;18.63;9.20;;;;;;;12.34;88.11;102106.47;4994256;28;20034;-59
2022/10/06 00:32:14;;;;;;;18.65;9.27;;;;;;;12.32;87.79;102109.53;4994324;28;20049;-59
2022/10/06 00:34:39;;;;;;;20.55;9.48;;;;;;;12.33;87.51;102121.44;4994202;28;20033;-59
2022/10/06 00:37:05;;;;;;;25.65;9.70;;;;;;;12.29;86.95;102118.41;4994180;28;20049;-61
2022/10/06 00:39:30;;;;;;;20.60;8.80;;;;;;;12.27;86.47;102123.44;4993927;28;20109;-59
2022/10/06 00:41:55;;;;;;;18.92;8.88;;;;;;;12.28;86.20;102127.03;4994305;28;20093;-61
2022/10/06 00:44:20;;;;;;;22.23;9.10;;;;;;;12.30;85.45;102130.38;4994318;28;20537;-59
2022/10/06 00:46:52;;;;;;;21.33;9.48;;;;;;;12.26;85.39;102118.16;4994049;28;20027;-59
2022/10/06 00:49:21;;;;;;;17.70;9.30;;;;;;;12.29;85.02;102137.03;4993951;28;20061;-60
2022/10/06 00:52:23;;;;;;;22.75;10.00;;;;;;;12.28;85.23;102140.91;4993815;28;20038;-60
2022/10/06 00:54:48;;;;;;;19.63;9.30;;;;;;;12.22;84.99;102136.53;4972033;28;20027;-59
2022/10/06 00:57:14;;;;;;;21.02;9.30;;;;;;;12.24;84.74;102151.75;4984240;28;20077;-59
2022/10/06 00:59:39;;;;;;;18.73;9.50;;;;;;;12.20;83.97;102150.66;4992266;28;20042;-59
2022/10/06 01:02:14;;;;;;;20.25;9.15;;;;;;;12.20;84.24;102150.66;4993490;28;20037;-60
2022/10/06 01:04:46;;;;;;;21.05;9.52;;;;;;;12.16;84.66;102144.03;4991999;28;20474;-59
2022/10/06 01:07:12;;;;;;;18.98;9.63;;;;;;;12.16;85.33;102150.41;4993983;28;20030;-60
2022/10/06 01:09:39;;;;;;;18.60;9.50;;;;;;;12.14;85.10;102160.13;4993263;28;20026;-58
2022/10/06 01:12:06;;;;;;;20.13;8.98;;;;;;;12.11;85.80;102164.31;4993068;28;20034;-59
2022/10/06 01:14:35;;;;;;;18.50;9.30;;;;;;;12.06;86.17;102172.63;4992936;28;20042;-59
2022/10/06 01:17:06;;;;;;;19.17;9.82;;;;;;;11.94;86.63;102170.16;4993304;28;20042;-59
2022/10/06 01:19:42;;;;;;;18.50;8.93;;;;;;;11.99;87.30;102178.50;4992881;28;20056;-59
2022/10/06 01:22:11;;;;;;;20.00;9.55;;;;;;;11.98;87.66;102176.84;4993271;28;20373;-59
2022/10/06 01:24:37;;;;;;;20.30;9.98;;;;;;;11.97;88.06;102188.16;4993344;28;20026;-59
2022/10/06 01:27:04;;;;;;;21.65;10.38;;;;;;;11.95;88.16;102188.47;4993160;28;20029;-60
2022/10/06 01:29:34;;;;;;;18.52;9.80;;;;;;;11.95;88.43;102193.19;4993116;28;20135;-59
2022/10/06 01:31:59;;;;;;;20.20;9.20;;;;;;;11.90;88.26;102195.97;4993043;28;20030;-59
2022/10/06 01:34:25;;;;;;;18.73;9.45;;;;;;;11.89;88.56;102211.78;4992855;28;20022;-60
2022/10/06 01:36:50;;;;;;;19.52;9.60;;;;;;;11.89;88.89;102205.41;4992905;28;20038;-60
2022/10/06 01:39:15;;;;;;;21.13;9.80;;;;;;;11.85;88.87;102205.94;4991720;28;20027;-59
2022/10/06 01:41:41;;;;;;;18.25;10.15;;;;;;;11.82;89.08;102208.47;4993272;28;20049;-60
2022/10/06 01:44:06;;;;;;;19.90;9.98;;;;;;;11.81;88.90;102215.97;4991921;28;20026;-59
2022/10/06 01:46:31;;;;;;;16.33;9.60;;;;;;;11.78;88.54;102226.78;4993098;28;20069;-59
2022/10/06 01:48:57;;;;;;;19.35;10.23;;;;;;;11.74;89.01;102225.66;4993305;28;20114;-60
2022/10/06 01:51:22;;;;;;;22.15;10.40;;;;;;;11.74;88.50;102214.59;4992395;28;20053;-59
2022/10/06 01:53:47;;;;;;;17.80;9.60;;;;;;;11.74;88.11;102217.34;4993091;28;20026;-59
2022/10/06 01:56:13;;;;;;;18.80;10.18;;;;;;;11.74;87.95;102226.53;4991606;28;20030;-60
2022/10/06 01:58:38;;;;;;;18.83;9.20;;;;;;;11.71;87.26;102229.84;4992998;28;20034;-59
2022/10/06 02:01:08;;;;;;;20.88;10.00;;;;;;;11.70;87.54;102228.19;4993255;28;20037;-60
2022/10/06 02:03:34;;;;;;;18.00;9.77;;;;;;;11.67;87.62;102235.13;4993461;28;20041;-60
2022/10/06 02:06:00;;;;;;;21.95;9.95;;;;;;;11.61;87.52;102236.25;4992829;28;20038;-59
2022/10/06 02:08:25;;;;;;;20.63;9.95;;;;;;;11.60;87.34;102234.59;4993299;28;20026;-59
2022/10/06 02:10:51;;;;;;;17.77;9.77;;;;;;;11.56;87.85;102239.00;4993121;28;20133;-59
2022/10/06 02:13:16;;;;;;;18.58;9.30;;;;;;;11.53;87.68;102234.00;4993335;28;20027;-58
2022/10/06 02:15:41;;;;;;;18.27;9.95;;;;;;;11.55;88.04;102249.28;4993325;28;20501;-59
2022/10/06 02:18:07;;;;;;;17.50;9.80;;;;;;;11.51;87.51;102248.16;4993276;28;20042;-59
2022/10/06 02:20:32;;;;;;;20.85;9.75;;;;;;;11.49;87.95;102258.69;4992932;28;20473;-59
2022/10/06 02:22:57;;;;;;;19.95;10.10;;;;;;;11.46;87.77;102266.72;4993412;28;20089;-59
2022/10/06 02:25:23;;;;;;;19.13;9.45;;;;;;;11.46;87.92;102269.50;4992763;28;20027;-59
2022/10/06 02:27:48;;;;;;;19.20;9.43;;;;;;;11.42;87.88;102276.72;5006460;28;20365;-59
2022/10/06 02:30:13;;;;;;;20.60;9.80;;;;;;;11.33;87.76;102266.19;5012848;28;20109;-60
2022/10/06 02:32:41;;;;;;;20.92;9.77;;;;;;;11.35;87.96;102280.56;5012101;28;20018;-59
2022/10/06 02:35:07;;;;;;;21.27;9.80;;;;;;;11.32;88.46;102278.38;5012366;28;20128;-59
2022/10/06 02:37:33;;;;;;;20.95;9.70;;;;;;;11.28;88.77;102280.03;5011021;28;20025;-59
2022/10/06 02:39:59;;;;;;;23.05;9.77;;;;;;;11.28;88.35;102285.56;5012287;28;20030;-59
2022/10/06 02:42:24;;;;;;;16.50;9.18;;;;;;;11.26;88.15;102289.72;5012420;28;20061;-58
2022/10/06 02:44:51;;;;;;;20.10;10.15;;;;;;;11.25;88.61;102291.63;5012546;28;20018;-59
2022/10/06 02:47:17;;;;;;;22.33;10.20;;;;;;;11.21;88.80;102299.66;5011494;28;20358;-60
2022/10/06 02:49:42;;;;;;;18.23;9.52;;;;;;;11.18;88.46;102299.41;5012985;28;20030;-59
2022/10/06 02:52:08;;;;;;;21.80;9.75;;;;;;;11.21;88.28;102290.53;5011428;28;20041;-59
2022/10/06 02:54:35;;;;;;;20.55;10.20;;;;;;;11.16;88.55;102298.84;5012567;28;20084;-59
2022/10/06 02:57:00;;;;;;;20.30;10.30;;;;;;;11.12;88.87;102319.88;5012205;28;20113;-59
2022/10/06 02:59:26;;;;;;;25.20;9.95;;;;;;;11.09;88.50;102326.81;5011983;28;20105;-59
2022/10/06 03:01:51;;;;;;;18.70;9.55;;;;;;;11.03;88.82;102328.72;5012177;28;20061;-59
2022/10/06 03:04:17;;;;;;;21.00;9.02;;;;;;;11.02;88.86;102331.75;5015273;28;20347;-60
2022/10/06 03:06:43;;;;;;;18.70;9.35;;;;;;;11.01;89.15;102328.16;5015847;28;20030;-60
2022/10/06 03:09:09;;;;;;;22.05;9.63;;;;;;;11.01;89.38;102333.72;5015711;28;20022;-60
2022/10/06 03:11:37;;;;;;;20.85;9.18;;;;;;;10.95;89.33;102345.88;5015600;28;20083;-59
2022/10/06 03:14:03;;;;;;;20.92;9.77;;;;;;;10.93;89.36;102348.09;5014487;28;20643;-59
2022/10/06 03:16:32;;;;;;;20.75;9.55;;;;;;;10.89;90.04;102355.25;5014551;28;20095;-59
2022/10/06 03:18:59;;;;;;;21.90;9.43;;;;;;;10.87;89.99;102349.16;5015129;28;20045;-59
2022/10/06 03:21:27;;;;;;;24.70;10.52;;;;;;;10.80;89.80;102352.19;5014829;28;20030;-60
2022/10/06 03:23:53;;;;;;;22.25;9.95;;;;;;;10.82;90.18;102352.72;5014750;28;20099;-60
2022/10/06 03:26:22;;;;;;;19.05;9.70;;;;;;;10.71;90.33;102343.56;5014564;28;20109;-60
2022/10/06 03:28:47;;;;;;;21.08;9.40;;;;;;;10.77;90.51;102363.81;5014443;28;20032;-59
2022/10/06 03:31:14;;;;;;;19.55;10.10;;;;;;;10.72;90.90;102361.03;5015201;28;20018;-60
2022/10/06 03:33:39;;;;;;;21.15;9.90;;;;;;;10.69;90.76;102369.84;5015205;28;20034;-60
2022/10/06 03:36:17;;;;;;;21.05;10.07;;;;;;;10.69;91.33;102384.50;5015003;28;20133;-59
2022/10/06 03:38:42;;;;;;;22.52;10.25;;;;;;;10.64;91.82;102378.13;5014998;28;20079;-59
2022/10/06 03:41:09;;;;;;;20.80;9.93;;;;;;;10.65;91.95;102385.31;5014564;28;20465;-59
2022/10/06 03:43:36;;;;;;;20.48;9.70;;;;;;;10.63;92.19;102393.09;5014385;28;20101;-59
2022/10/06 03:46:03;;;;;;;21.55;10.23;;;;;;;10.59;91.99;102388.06;5014426;28;20029;-59
2022/10/06 03:48:30;;;;;;;22.48;9.60;;;;;;;10.56;92.64;102385.03;5014437;28;20457;-61
2022/10/06 03:50:57;;;;;;;21.95;10.68;;;;;;;10.53;93.01;102397.44;5013237;28;20080;-59
2022/10/06 03:53:26;;;;;;;20.25;10.63;;;;;;;10.47;92.82;102395.75;5014434;28;20537;-59
2022/10/06 03:56:12;;;;;;;21.85;9.90;;;;;;;10.44;92.85;102399.03;5014263;28;20041;-59
2022/10/06 03:58:39;;;;;;;20.20;10.23;;;;;;;10.39;93.00;102399.00;5013952;28;20073;-58
2022/10/06 04:01:19;;;;;;;18.92;9.30;;;;;;;10.37;92.88;102412.25;5014160;28;20022;-59
2022/10/06 04:03:45;;;;;;;20.23;9.90;;;;;;;10.36;93.70;102422.50;5014175;28;20076;-59
2022/10/06 04:06:12;;;;;;;21.75;10.10;;;;;;;10.33;93.86;102427.72;5013865;28;20022;-60
2022/10/06 04:08:39;;;;;;;23.13;10.80;;;;;;;10.26;94.20;102430.72;5014078;28;20030;-59
2022/10/06 04:11:17;;;;;;;20.00;9.70;;;;;;;10.18;94.97;102420.16;5013698;28;20022;-59
2022/10/06 04:13:44;;;;;;;19.75;10.27;;;;;;;10.23;94.44;102440.38;5013682;28;20528;-59
2022/10/06 04:16:18;;;;;;;20.48;10.55;;;;;;;10.18;94.51;102440.31;5014140;28;20025;-59
2022/10/06 04:18:45;;;;;;;22.60;11.40;;;;;;;10.14;94.80;102444.72;5013850;28;20038;-61
2022/10/06 04:21:11;;;;;;;23.08;10.98;;;;;;;10.08;95.07;102449.38;5013664;28;20030;-59
2022/10/06 04:23:37;;;;;;;20.45;10.65;;;;;;;10.10;95.18;102454.66;5013920;28;20030;-60
2022/10/06 04:26:08;;;;;;;22.30;10.88;;;;;;;10.00;95.77;102447.09;5013931;28;20057;-60
2022/10/06 04:28:35;;;;;;;19.58;10.77;;;;;;;10.04;95.24;102464.00;5013813;28;20034;-59
2022/10/06 04:31:00;;;;;;;21.98;11.20;;;;;;;9.96;95.48;102460.63;5013717;28;20045;-60
2022/10/06 04:33:27;;;;;;;21.60;9.98;;;;;;;9.96;95.20;102462.53;5013979;28;20495;-60
2022/10/06 04:36:14;;;;;;;22.38;10.48;;;;;;;9.94;96.08;102464.72;5013704;28;20102;-59
2022/10/06 04:38:39;;;;;;;23.50;10.00;;;;;;;9.91;95.67;102463.31;5013713;28;20156;-60
2022/10/06 04:41:12;;;;;;;23.00;10.65;;;;;;;9.90;96.07;102466.38;5013586;28;20050;-60
2022/10/06 04:43:38;;;;;;;22.00;10.98;;;;;;;9.86;95.64;102467.97;5013994;28;20442;-61
2022/10/06 04:46:04;;;;;;;21.63;11.38;;;;;;;9.81;95.57;102477.03;5013132;28;20029;-60
2022/10/06 04:48:30;;;;;;;21.08;11.07;;;;;;;9.76;95.81;102477.00;5013482;28;20030;-60
2022/10/06 04:51:00;;;;;;;22.02;12.05;;;;;;;9.61;96.64;102466.63;5013837;28;20030;-59
2022/10/06 04:53:27;;;;;;;25.63;11.60;;;;;;;9.67;96.08;102483.00;5013561;28;20022;-59
2022/10/06 04:56:00;;;;;;;22.77;11.27;;;;;;;9.60;96.48;102493.41;5013787;28;20373;-59
2022/10/06 04:58:29;;;;;;;24.45;11.02;;;;;;;9.60;96.83;102496.16;5014039;28;20018;-60
2022/10/06 05:00:54;;;;;;;20.48;10.85;;;;;;;9.56;96.66;102496.94;5013804;28;20030;-59
2022/10/06 05:03:19;;;;;;;22.40;10.65;;;;;;;9.53;96.72;102495.53;5013809;28;20033;-59
2022/10/06 05:05:45;;;;;;;22.10;10.38;;;;;;;9.56;97.44;102511.59;5013646;28;20460;-61
2022/10/06 05:08:10;;;;;;;22.70;10.57;;;;;;;9.53;96.87;102509.34;5013423;28;20133;-60
2022/10/06 05:10:35;;;;;;;20.73;10.70;;;;;;;9.52;96.76;102518.72;5013289;28;20048;-60
2022/10/06 05:13:02;;;;;;;23.48;10.32;;;;;;;9.51;97.08;102523.44;5013462;28;20026;-59
2022/10/06 05:15:28;;;;;;;21.75;10.90;;;;;;;9.49;97.05;102528.38;5016769;28;20025;-60
2022/10/06 05:17:53;;;;;;;23.05;10.60;;;;;;;9.41;97.12;102519.69;5033007;28;20075;-60
2022/10/06 05:20:21;;;;;;;24.45;10.75;;;;;;;9.43;96.67;102540.47;5032444;28;20026;-60
2022/10/06 05:22:47;;;;;;;22.75;10.73;;;;;;;9.43;97.45;102545.13;5032512;28;20025;-60
2022/10/06 05:25:12;;;;;;;22.95;11.25;;;;;;;9.36;97.19;102546.16;5031649;28;20495;-60
2022/10/06 05:27:38;;;;;;;23.80;11.73;;;;;;;9.31;97.02;102537.81;5029710;28;20204;-60
2022/10/06 05:30:03;;;;;;;21.65;11.30;;;;;;;9.28;97.48;102540.25;5004765;28;20029;-60
2022/10/06 05:32:28;;;;;;;24.63;11.20;;;;;;;9.25;97.73;102549.88;5002792;28;20022;-59
2022/10/06 05:34:54;;;;;;;21.58;10.70;;;;;;;9.18;97.64;102547.28;5004868;28;20022;-61
2022/10/06 05:37:19;;;;;;;23.40;11.45;;;;;;;9.18;98.00;102555.59;5007822;28;20081;-59
2022/10/06 05:39:45;;;;;;;22.48;10.50;;;;;;;9.15;97.77;102558.03;5013539;28;20041;-60
2022/10/06 05:42:10;;;;;;;25.13;11.40;;;;;;;9.12;97.94;102564.03;5013154;28;20496;-59
2022/10/06 05:44:36;;;;;;;23.67;11.40;;;;;;;9.09;97.94;102565.38;5012920;28;20133;-60
2022/10/06 05:47:01;;;;;;;22.70;11.43;;;;;;;9.09;98.16;102567.34;5012579;28;20045;-60
2022/10/06 05:49:26;;;;;;;24.17;11.43;;;;;;;9.05;98.06;102576.13;5012558;28;20030;-61
2022/10/06 05:51:52;;;;;;;24.30;11.30;;;;;;;9.00;98.49;102580.72;5012946;28;20362;-60
2022/10/06 05:54:17;;;;;;;22.10;11.50;;;;;;;8.95;98.15;102581.47;5012674;28;20084;-60
2022/10/06 05:56:43;;;;;;;24.10;11.73;;;;;;;8.93;98.56;102593.88;5012718;28;20033;-60
2022/10/06 05:59:08;;;;;;;26.02;11.77;;;;;;;8.92;98.63;102586.66;5013131;28;20018;-60
2022/10/06 06:01:39;;;;;;;25.33;12.45;;;;;;;8.81;98.97;102586.50;5012821;28;20030;-61
2022/10/06 06:04:07;;;;;;;22.67;11.38;;;;;;;8.79;99.07;102590.59;5012410;28;20042;-60
2022/10/06 06:06:36;;;;;;;22.85;11.57;;;;;;;8.80;99.49;102590.34;5012928;28;20034;-60
2022/10/06 06:09:14;;;;;;;23.95;11.15;;;;;;;8.89;99.63;102612.84;5012992;28;20030;-60
2022/10/06 06:11:42;;;;;;;23.23;11.02;;;;;;;8.92;99.29;102609.59;5013205;28;20026;-60
2022/10/06 06:14:17;;;;;;;24.15;11.57;;;;;;;8.95;98.83;102622.06;5012637;28;20057;-59
2022/10/06 06:16:44;;;;;;;26.50;11.50;;;;;;;8.97;99.07;102623.47;5012959;28;20030;-61
2022/10/06 06:19:11;;;;;;;24.77;11.50;;;;;;;9.01;99.01;102623.81;5013066;28;20406;-60
2022/10/06 06:21:37;;;;;;;25.30;11.60;;;;;;;8.99;98.02;102618.53;5012663;28;20113;-60
2022/10/06 06:24:03;;;;;;;23.17;11.23;;;;;;;8.97;98.15;102619.88;5012070;28;20030;-60
2022/10/06 06:26:31;;;;;;;21.27;11.00;;;;;;;9.00;97.76;102625.75;5012384;28;20033;-60
2022/10/06 06:29:02;;;;;;;25.48;10.65;;;;;;;9.07;97.91;102628.31;5012436;28;20394;-63
2022/10/06 06:31:30;;;;;;;23.52;11.00;;;;;;;9.11;98.47;102635.00;5012741;28;20030;-61
2022/10/06 06:33:58;;;;;;;26.52;10.90;;;;;;;9.10;98.18;102626.97;5012589;28;20053;-60
2022/10/06 06:36:30;;;;;;;24.77;10.90;;;;;;;9.15;97.77;102633.44;5012474;28;20021;-61
2022/10/06 06:38:57;;;;;;;25.83;10.75;;;;;;;9.16;97.05;102637.84;5016089;28;20048;-60
2022/10/06 06:41:28;;;;;;;23.25;10.02;;;;;;;9.17;97.22;102639.50;5015838;28;20069;-60
2022/10/06 06:43:54;;;;;;;23.98;9.82;;;;;;;9.19;97.50;102644.81;5016102;28;20026;-61
2022/10/06 06:46:23;;;;;;;22.42;9.88;;;;;;;9.21;97.94;102640.69;5016343;28;20413;-60
2022/10/06 06:48:50;;;;;;;25.73;9.80;;;;;;;9.30;96.70;102651.31;5016099;28;20434;-61
2022/10/06 06:51:15;;;;;;;23.95;9.98;;;;;;;9.32;96.81;102649.13;5016468;28;20036;-60
2022/10/06 06:53:41;;;;;;;22.73;10.05;;;;;;;9.35;96.51;102662.44;5016227;28;20022;-61
2022/10/06 06:56:08;;;;;;;22.92;10.15;;;;;;;9.41;96.43;102663.31;5016073;28;20026;-60
2022/10/06 06:58:34;;;;;;;24.60;9.93;;;;;;;9.50;96.31;102659.03;5016224;28;20053;-61
2022/10/06 07:01:07;;;;;;;23.65;10.45;;;;;;;9.54;96.14;102675.97;5016081;28;20462;-61
2022/10/06 07:03:33;;;;;;;24.37;10.30;;;;;;;9.57;95.64;102672.69;5015953;28;20061;-60
2022/10/06 07:06:07;;;;;;;22.77;10.15;;;;;;;9.60;95.09;102678.53;5016241;28;20049;-60
2022/10/06 07:08:33;;;;;;;24.10;9.90;;;;;;;9.70;95.14;102679.78;5016302;28;20117;-58
2022/10/06 07:10:58;;;;;;;23.30;9.38;;;;;;;9.75;95.08;102693.66;5015591;28;20118;-59
2022/10/06 07:13:23;;;;;;;24.50;10.30;;;;;;;9.78;94.71;102684.84;5015808;28;20028;-60
2022/10/06 07:26:44;;;;;;;;;;;;;;;10.04;92.89;102715.63;4994020;28;20105;-59
2022/10/06 07:29:09;;;;;;;24.23;10.93;;;;;;;10.02;92.90;102717.81;4993131;28;20294;-59
2022/10/06 07:31:35;;;;;;;26.40;10.13;;;;;;;10.05;92.73;102723.66;4993024;28;20042;-60
2022/10/06 07:34:03;;;;;;;26.58;10.68;;;;;;;10.15;91.74;102734.03;4992954;28;20861;-59
2022/10/06 07:36:30;;;;;;;24.98;10.15;;;;;;;10.22;91.35;102739.34;4993164;28;20027;-58
2022/10/06 07:38:55;;;;;;;24.33;9.85;;;;;;;10.32;91.15;102746.94;4992780;28;20530;-59
2022/10/06 07:41:22;;;;;;;22.92;10.10;;;;;;;10.39;91.25;102755.91;4992824;28;20110;-60
2022/10/06 07:43:47;;;;;;;23.55;10.15;;;;;;;10.42;90.94;102747.94;4994669;28;20030;-59
2022/10/06 07:46:13;;;;;;;25.98;10.35;;;;;;;10.49;90.68;102761.56;5001673;28;20033;-60
2022/10/06 07:48:39;;;;;;;25.33;10.20;;;;;;;10.54;90.21;102758.03;5004130;28;20551;-59
2022/10/06 07:51:12;;;;;;;26.30;10.60;;;;;;;10.55;89.72;102743.09;5008643;28;20050;-60
2022/10/06 07:53:37;;;;;;;23.30;10.23;;;;;;;10.68;88.83;102755.69;5006289;28;20076;-61
2022/10/06 07:56:07;;;;;;;24.63;10.15;;;;;;;10.73;88.83;102762.13;5007566;28;20031;-60
2022/10/06 07:58:33;;;;;;;22.65;10.20;;;;;;;10.78;88.79;102764.13;4993941;28;20352;-59
2022/10/06 08:01:07;;;;;;;26.70;10.23;;;;;;;10.85;88.45;102775.81;4992449;28;20465;-59
2022/10/06 08:03:33;;;;;;;27.58;10.52;;;;;;;10.82;87.95;102764.44;4993885;28;20038;-60
2022/10/06 08:06:00;;;;;;;21.63;9.77;;;;;;;10.88;87.77;102769.75;4997997;28;20041;-59
2022/10/06 08:08:28;;;;;;;21.90;9.65;;;;;;;10.99;88.01;102772.63;5001994;28;20029;-59
2022/10/06 08:10:55;;;;;;;23.42;10.82;;;;;;;11.06;87.56;102770.47;5010635;28;20030;-59
2022/10/06 08:13:21;;;;;;;20.42;9.73;;;;;;;11.09;87.35;102775.50;5005801;28;20060;-60
2022/10/06 08:15:49;;;;;;;24.00;9.73;;;;;;;11.14;87.49;102778.31;5001886;28;20033;-59
2022/10/06 08:18:15;;;;;;;27.52;10.32;;;;;;;11.22;87.11;102779.78;5007678;28;20068;-60
2022/10/06 08:20:41;;;;;;;23.80;9.98;;;;;;;11.27;86.92;102782.56;5007583;28;20766;-64
2022/10/06 08:23:07;;;;;;;24.25;9.88;;;;;;;11.30;86.42;102783.97;5001276;28;20034;-60
2022/10/06 08:25:35;;;;;;;22.88;10.00;;;;;;;11.30;86.10;102783.97;5002443;28;20037;-59
2022/10/06 08:28:01;;;;;;;21.98;10.10;;;;;;;11.42;85.83;102795.75;4997276;28;20108;-59
2022/10/06 08:30:26;;;;;;;22.92;9.93;;;;;;;11.49;85.64;102804.66;5004466;28;20046;-59
2022/10/06 08:32:52;;;;;;;25.55;10.02;;;;;;;11.53;85.57;102810.50;5005498;28;20056;-59
2022/10/06 08:35:17;;;;;;;21.33;9.98;;;;;;;11.62;85.42;102813.63;5009074;28;20034;-60
2022/10/06 08:37:42;;;;;;;23.25;10.10;;;;;;;11.66;84.61;102810.06;5010898;28;20120;-59
2022/10/06 08:40:13;;;;;;;23.40;10.25;;;;;;;11.72;84.37;102813.72;4995160;28;20089;-60
2022/10/06 08:42:45;;;;;;;23.42;9.55;;;;;;;11.75;83.77;102802.09;4993248;28;20104;-59
2022/10/06 08:45:27;;;;;;;22.85;9.60;;;;;;;11.92;84.31;102818.56;5001408;28;20045;-59
2022/10/06 08:48:00;;;;;;;20.92;9.80;;;;;;;12.01;83.36;102821.72;5011493;28;20026;-58
2022/10/06 08:50:28;;;;;;;22.42;10.35;;;;;;;12.09;83.11;102821.22;5010546;28;20125;-60
2022/10/06 08:53:20;;;;;;;23.92;10.35;;;;;;;12.19;82.68;102827.94;5011223;28;20124;-59
2022/10/06 08:55:52;;;;;;;23.63;10.20;;;;;;;12.22;81.92;102828.22;5000216;28;20041;-60
2022/10/06 08:58:28;;;;;;;19.80;9.60;;;;;;;12.28;81.33;102838.22;5013027;28;20034;-60
2022/10/06 09:00:55;;;;;;;21.30;10.02;;;;;;;12.34;81.53;102830.78;5012798;28;20077;-59
2022/10/06 09:03:25;;;;;;;23.42;9.75;;;;;;;12.37;80.79;102832.19;5012901;28;20030;-59
2022/10/06 09:05:55;;;;;;;22.23;10.30;;;;;;;12.43;80.68;102839.44;5013041;28;20030;-60
2022/10/06 09:08:26;;;;;;;20.95;10.23;;;;;;;12.51;79.95;102846.41;5011192;28;20041;-60
2022/10/06 09:11:03;;;;;;;22.02;9.88;;;;;;;12.60;80.14;102845.63;5005260;28;20029;-60
2022/10/06 09:13:38;;;;;;;22.00;10.50;;;;;;;12.68;79.63;102854.53;5012388;28;20501;-60
2022/10/06 09:16:16;;;;;;;23.65;10.25;;;;;;;12.74;80.06;102851.50;5012456;28;20038;-60
2022/10/06 09:18:50;;;;;;;21.65;9.80;;;;;;;12.88;79.57;102857.38;5012138;28;20466;-59
2022/10/06 09:21:22;;;;;;;;;;;;;;;12.98;79.96;102869.63;5012750;28;20026;-59
2022/10/06 09:24:02;;;;;;;23.63;9.98;;;;;;;12.99;78.94;102871.31;5011073;28;19917;-59
2022/10/06 09:26:34;;;;;;;22.50;9.70;;;;;;;13.04;77.70;102869.38;5012253;28;20508;-59
2022/10/06 09:28:59;;;;;;;22.08;9.75;;;;;;;13.10;76.83;102878.56;5012153;28;20100;-59
2022/10/06 09:31:36;;;;;;;24.75;9.90;;;;;;;13.13;76.55;102871.63;5012029;28;20469;-59
2022/10/06 09:34:20;;;;;;;19.30;9.55;;;;;;;13.17;76.83;102875.53;5011855;28;20103;-60
2022/10/06 09:37:04;;;;;;;20.77;9.60;;;;;;;13.17;75.58;102868.03;5011859;28;20026;-60
2022/10/06 09:39:35;;;;;;;21.02;10.18;;;;;;;13.30;75.39;102869.44;5011932;28;20038;-60
2022/10/06 09:42:05;;;;;;;21.55;9.95;;;;;;;13.35;75.56;102861.13;5012202;28;20427;-60
2022/10/06 09:44:43;;;;;;;22.95;10.05;;;;;;;13.50;75.82;102871.47;5012125;28;20133;-60
2022/10/06 09:47:38;;;;;;;21.05;9.90;;;;;;;13.61;75.50;102869.50;5011863;28;20682;-59
2022/10/06 09:50:24;;;;;;;21.25;9.70;;;;;;;13.59;75.40;102874.50;5009123;28;20363;-59
2022/10/06 09:53:05;;;;;;;22.77;9.93;;;;;;;13.65;73.95;102883.69;4994189;28;20045;-60
2022/10/06 09:55:36;;;;;;;23.10;9.52;;;;;;;13.69;74.28;102887.59;4992160;28;20387;-61
2022/10/06 09:58:22;;;;;;;21.30;9.40;;;;;;;13.77;73.40;102888.97;5002397;28;20033;-60
2022/10/06 10:00:51;;;;;;;22.05;9.30;;;;;;;13.71;73.03;102879.78;5011570;28;20072;-60
2022/10/06 10:03:17;;;;;;;20.52;9.15;;;;;;;13.84;73.08;102883.97;5004634;28;20033;-60
2022/10/06 10:05:49;;;;;;;25.60;9.90;;;;;;;13.85;72.05;102869.78;4997018;28;20784;-60
2022/10/06 10:08:31;;;;;;;21.48;9.63;;;;;;;14.01;72.11;102876.19;5021915;28;20105;-60
2022/10/06 10:12:23;;;;;;;19.80;9.13;;;;;;;14.16;70.73;102888.41;4996540;28;20041;-59
2022/10/06 10:13:58;;;;;;;19.90;9.15;;;;;;;14.28;69.48;102886.16;5008009;28;20056;-60
2022/10/06 10:16:33;;;;;;;20.10;9.73;;;;;;;14.45;69.61;102880.25;5017413;28;20047;-60
2022/10/06 10:19:00;;;;;;;21.17;9.35;;;;;;;14.63;69.64;102886.34;5017621;28;20069;-61
2022/10/06 10:21:34;;;;;;;20.60;9.25;;;;;;;14.66;68.35;102863.47;5015172;28;20079;-60
2022/10/06 10:24:04;;;;;;;18.08;8.98;;;;;;;14.81;67.55;102871.81;5004516;28;20046;-60
2022/10/06 10:26:44;;;;;;;22.33;9.38;;;;;;;14.98;66.45;102888.16;5017498;28;20398;-59
2022/10/06 10:29:15;;;;;;;18.90;9.35;;;;;;;15.07;65.87;102885.59;5018185;28;20048;-60
2022/10/06 10:31:54;;;;;;;20.30;9.27;;;;;;;15.18;66.47;102885.56;5017494;28;20037;-60
2022/10/06 10:34:46;;;;;;;20.33;9.25;;;;;;;15.34;65.86;102887.13;5017772;28;20048;-60
2022/10/06 10:37:29;;;;;;;21.73;9.27;;;;;;;15.39;64.60;102887.09;5018173;28;20029;-60
2022/10/06 10:40:05;;;;;;;19.45;9.45;;;;;;;15.35;63.94;102893.53;5017273;28;20029;-59
2022/10/06 10:42:46;;;;;;;21.20;9.85;;;;;;;15.23;63.54;102889.16;5009104;28;20026;-60
2022/10/06 10:45:21;;;;;;;20.45;9.80;;;;;;;15.16;64.38;102883.03;4997581;28;20364;-61
2022/10/06 10:47:48;;;;;;;22.23;9.98;;;;;;;15.16;63.38;102877.47;4998125;28;20058;-60
2022/10/06 10:50:35;;;;;;;19.38;9.80;;;;;;;15.33;63.87;102877.09;4997693;28;20030;-62
2022/10/06 10:53:10;;;;;;;21.52;10.48;;;;;;;15.20;62.79;102844.28;4997552;28;20023;-59
2022/10/06 10:55:47;;;;;;;21.05;9.75;;;;;;;15.44;61.65;102891.81;4997525;28;20049;-60
2022/10/06 10:58:23;;;;;;;21.52;10.20;;;;;;;15.53;60.98;102890.06;4997967;28;20030;-61
2022/10/06 11:00:55;;;;;;;23.52;9.70;;;;;;;15.48;61.05;102894.84;4997329;28;20034;-59
2022/10/06 11:03:20;;;;;;;19.55;9.82;;;;;;;15.32;60.89;102892.13;4996312;28;20046;-60
2022/10/06 11:06:13;;;;;;;20.10;9.45;;;;;;;15.37;62.74;102891.28;4997554;28;20084;-60
2022/10/06 11:08:55;;;;;;;16.42;9.10;;;;;;;15.48;61.72;102889.28;4997167;28;20042;-60
2022/10/06 11:11:41;;;;;;;18.83;9.60;;;;;;;15.56;61.60;102886.69;4998002;28;20041;-60
2022/10/06 11:14:25;;;;;;;17.67;9.15;;;;;;;15.54;60.67;102897.28;4997065;28;20035;-61
2022/10/06 11:17:02;;;;;;;17.92;9.40;;;;;;;15.69;60.46;102895.53;4996011;28;20054;-58
2022/10/06 11:19:52;;;;;;;22.35;9.73;;;;;;;15.76;59.23;102904.38;4997558;28;20030;-60
2022/10/06 11:22:51;;;;;;;21.58;9.50;;;;;;;15.63;58.25;102886.34;4999649;28;20034;-59
2022/10/06 11:25:39;;;;;;;22.08;9.40;;;;;;;15.76;58.93;102909.97;4995352;28;20046;-59
2022/10/06 11:28:16;;;;;;;18.92;9.68;;;;;;;15.78;58.32;102898.50;4998339;28;20048;-59
2022/10/06 11:31:09;;;;;;;22.02;9.23;;;;;;;15.73;58.08;102902.16;5002647;28;20038;-59
2022/10/06 11:33:52;;;;;;;20.15;9.15;;;;;;;15.63;58.27;102902.28;4997058;28;20463;-59
2022/10/06 11:36:38;;;;;;;20.08;9.50;;;;;;;15.56;58.88;102885.84;5009496;28;20026;-59
2022/10/06 11:39:15;;;;;;;21.38;10.13;;;;;;;15.75;58.78;102899.94;4994288;28;20114;-58